createdAt,value
2019-03-03T00:00:33.761Z,100640.50
2019-03-03T00:03:01.945Z,100636.56
2019-03-03T00:05:30.131Z,100632.41
2019-03-03T00:07:58.297Z,100634.75
2019-03-03T00:10:26.497Z,100637.53
2019-03-03T00:12:54.669Z,100639.80
2019-03-03T00:15:22.840Z,100632.98
2019-03-03T00:17:51.030Z,100633.34
2019-03-03T00:20:19.223Z,100638.41
2019-03-03T00:22:47.390Z,100637.23
2019-03-03T00:25:15.897Z,100643.02
2019-03-03T00:27:44.248Z,100639.50
2019-03-03T00:30:14.716Z,100648.14
2019-03-03T00:32:42.900Z,100649.48
2019-03-03T00:35:11.097Z,100644.17
2019-03-03T00:37:55.993Z,100645.90
2019-03-03T00:40:42.346Z,100648.58
2019-03-03T00:43:28.713Z,100647.94
2019-03-03T00:46:13.822Z,100645.26
2019-03-03T00:48:46.562Z,100635.55
2019-03-03T00:51:16.643Z,100641.61
2019-03-03T00:53:48.857Z,100626.23
2019-03-03T00:56:18.705Z,100630.61
2019-03-03T00:59:04.845Z,100621.06
2019-03-03T01:01:43.550Z,100620.07
2019-03-03T01:04:29.921Z,100623.55
2019-03-03T01:07:14.465Z,100623.20
2019-03-03T01:09:56.236Z,100619.98
2019-03-03T01:12:31.538Z,100622.52
2019-03-03T01:15:13.497Z,100617.91
2019-03-03T01:17:46.301Z,100621.42
2019-03-03T01:20:32.357Z,100629.33
2019-03-03T01:26:10.026Z,100610.55
2019-03-03T01:28:38.196Z,100602.73
2019-03-03T01:31:06.390Z,100600.72
2019-03-03T01:33:34.590Z,100593.66
2019-03-03T01:36:02.781Z,100591.99
2019-03-03T01:38:30.950Z,100598.38
2019-03-03T01:40:59.145Z,100603.24
2019-03-03T01:43:27.318Z,100602.29
2019-03-03T01:45:55.505Z,100601.30
2019-03-03T01:48:23.680Z,100597.80
2019-03-03T01:50:51.864Z,100595.08
2019-03-03T01:53:20.321Z,100593.47
2019-03-03T01:55:48.513Z,100589.94
2019-03-03T01:58:16.701Z,100583.85
2019-03-03T02:00:45.012Z,100579.73
2019-03-03T02:03:13.358Z,100574.51
2019-03-03T02:05:41.529Z,100574.12
2019-03-03T02:08:09.861Z,100573.03
2019-03-03T02:10:38.049Z,100568.09
2019-03-03T02:13:06.223Z,100572.02
2019-03-03T02:15:34.401Z,100568.02
2019-03-03T02:18:02.873Z,100564.72
2019-03-03T02:20:31.349Z,100563.25
2019-03-03T02:22:59.830Z,100554.05
2019-03-03T02:25:28.017Z,100548.50
2019-03-03T02:27:56.186Z,100552.08
2019-03-03T02:30:24.653Z,100543.73
2019-03-03T02:32:53.135Z,100536.67
2019-03-03T02:35:21.626Z,100532.10
2019-03-03T02:37:49.798Z,100533.13
2019-03-03T02:40:19.224Z,100525.56
2019-03-03T02:42:47.629Z,100518.88
2019-03-03T02:45:16.768Z,100502.76
2019-03-03T02:47:44.933Z,100496.34
2019-03-03T02:50:14.859Z,100488.27
2019-03-03T02:52:43.861Z,100482.55
2019-03-03T02:55:13.968Z,100481.66
2019-03-03T02:57:42.311Z,100480.13
2019-03-03T03:00:21.791Z,100480.57
2019-03-03T03:02:51.702Z,100481.36
2019-03-03T03:05:23.449Z,100479.83
2019-03-03T03:07:59.439Z,100482.35
2019-03-03T03:10:45.702Z,100479.19
2019-03-03T03:13:21.209Z,100489.71
2019-03-03T03:15:56.682Z,100483.11
2019-03-03T03:18:41.662Z,100474.77
2019-03-03T03:21:11.773Z,100474.10
2019-03-03T03:23:50.373Z,100464.92
2019-03-03T03:26:20.212Z,100461.31
2019-03-03T03:28:52.742Z,100462.66
2019-03-03T03:31:34.302Z,100456.20
2019-03-03T03:34:10.137Z,100456.81
2019-03-03T03:36:40.257Z,100454.47
2019-03-03T03:39:10.361Z,100447.59
2019-03-03T03:41:40.363Z,100440.28
2019-03-03T03:44:22.367Z,100435.47
2019-03-03T03:46:52.193Z,100422.20
2019-03-03T03:49:34.210Z,100415.92
2019-03-03T03:52:20.330Z,100414.38
2019-03-03T03:55:08.479Z,100419.15
2019-03-03T03:57:47.091Z,100418.69
2019-03-03T04:00:19.880Z,100425.46
2019-03-03T04:03:08.062Z,100423.87
2019-03-03T04:05:49.786Z,100415.84
2019-03-03T04:08:31.519Z,100408.30
2019-03-03T04:11:03.986Z,100405.97
2019-03-03T04:13:33.822Z,100407.22
2019-03-03T04:16:06.028Z,100402.77
2019-03-03T04:18:54.183Z,100403.20
2019-03-03T04:21:29.800Z,100382.00
2019-03-03T04:24:08.749Z,100378.19
2019-03-03T04:26:47.561Z,100378.51
2019-03-03T04:29:20.217Z,100375.81
2019-03-03T04:31:58.817Z,100373.89
2019-03-03T04:34:44.886Z,100383.58
2019-03-03T04:37:23.745Z,100385.64
2019-03-03T04:39:53.577Z,100381.65
2019-03-03T04:42:29.464Z,100379.17
2019-03-03T04:45:16.002Z,100380.45
2019-03-03T04:47:45.821Z,100381.46
2019-03-03T04:50:15.666Z,100377.61
2019-03-03T04:52:57.433Z,100372.80
2019-03-03T04:55:29.723Z,100379.82
2019-03-03T04:58:02.240Z,100378.69
2019-03-03T05:00:32.081Z,100376.34
2019-03-03T05:03:20.318Z,100372.04
2019-03-03T05:05:52.896Z,100356.96
2019-03-03T05:08:28.585Z,100350.52
2019-03-03T05:11:01.113Z,100349.30
2019-03-03T05:13:46.061Z,100337.33
2019-03-03T05:16:15.897Z,100327.05
2019-03-03T05:18:45.718Z,100334.58
2019-03-03T05:21:14.192Z,100333.77
2019-03-03T05:23:42.650Z,100336.60
2019-03-03T05:26:11.155Z,100339.53
2019-03-03T05:28:39.630Z,100338.43
2019-03-03T05:31:08.801Z,100332.84
2019-03-03T05:33:36.973Z,100333.64
2019-03-03T05:36:05.150Z,100333.00
2019-03-03T05:38:33.342Z,100324.58
2019-03-03T05:41:01.504Z,100325.42
2019-03-03T05:43:29.697Z,100306.53
2019-03-03T05:45:57.861Z,100315.28
2019-03-03T05:48:26.062Z,100311.08
2019-03-03T05:50:54.519Z,100309.02
2019-03-03T05:53:22.697Z,100309.96
2019-03-03T05:55:50.910Z,100311.61
2019-03-03T05:58:19.071Z,100317.54
2019-03-03T06:00:47.518Z,100311.93
2019-03-03T06:03:15.736Z,100314.49
2019-03-03T06:05:44.171Z,100313.05
2019-03-03T06:08:12.353Z,100320.20
2019-03-03T06:10:40.828Z,100317.42
2019-03-03T06:13:08.993Z,100325.59
2019-03-03T06:15:37.189Z,100327.23
2019-03-03T06:18:05.404Z,100323.50
2019-03-03T06:20:33.924Z,100322.70
2019-03-03T06:23:02.091Z,100323.55
2019-03-03T06:25:30.281Z,100332.05
2019-03-03T06:27:58.449Z,100319.14
2019-03-03T06:30:26.635Z,100309.16
2019-03-03T06:32:54.817Z,100312.73
2019-03-03T06:35:23.022Z,100316.67
2019-03-03T06:37:51.208Z,100314.16
2019-03-03T06:40:19.445Z,100310.43
2019-03-03T06:42:47.994Z,100305.37
2019-03-03T06:45:16.247Z,100304.40
2019-03-03T06:47:44.752Z,100309.59
2019-03-03T06:50:13.490Z,100301.85
2019-03-03T06:52:41.669Z,100304.40
2019-03-03T06:55:10.121Z,100301.94
2019-03-03T06:57:38.285Z,100304.45
2019-03-03T07:00:10.216Z,100309.16
2019-03-03T07:02:38.607Z,100305.25
2019-03-03T07:05:08.536Z,100306.33
2019-03-03T07:07:36.721Z,100307.87
2019-03-03T07:10:08.546Z,100302.54
2019-03-03T07:12:36.745Z,100296.27
2019-03-03T07:15:14.206Z,100295.59
2019-03-03T07:17:42.405Z,100295.92
2019-03-03T07:20:12.929Z,100307.00
2019-03-03T07:22:41.228Z,100313.29
2019-03-03T07:25:11.257Z,100315.44
2019-03-03T07:27:39.453Z,100303.52
2019-03-03T07:30:13.192Z,100301.02
2019-03-03T07:32:43.027Z,100306.86
2019-03-03T07:35:11.201Z,100309.97
2019-03-03T07:37:39.389Z,100307.23
2019-03-03T07:40:08.233Z,100294.25
2019-03-03T07:42:36.405Z,100299.54
2019-03-03T07:45:07.951Z,100302.41
2019-03-03T07:47:36.121Z,100309.10
2019-03-03T07:50:06.035Z,100305.84
2019-03-03T07:52:34.219Z,100313.23
2019-03-03T07:55:02.422Z,100307.91
2019-03-03T07:57:31.558Z,100312.11
2019-03-03T08:00:00.139Z,100308.09
2019-03-03T08:02:28.637Z,100299.09
2019-03-03T08:04:56.802Z,100308.34
2019-03-03T08:07:24.992Z,100307.33
2019-03-03T08:09:53.484Z,100294.94
2019-03-03T08:12:21.944Z,100297.66
2019-03-03T08:14:50.106Z,100301.97
2019-03-03T08:17:18.302Z,100301.45
2019-03-03T08:19:46.474Z,100296.16
2019-03-03T08:22:14.982Z,100296.96
2019-03-03T08:24:43.481Z,100291.33
2019-03-03T08:27:11.707Z,100281.05
2019-03-03T08:29:40.235Z,100288.50
2019-03-03T08:32:08.451Z,100287.86
2019-03-03T08:34:36.630Z,100287.28
2019-03-03T08:37:04.865Z,100289.35
2019-03-03T08:39:33.030Z,100287.72
2019-03-03T08:42:02.858Z,100289.55
2019-03-03T08:44:32.671Z,100280.67
2019-03-03T08:47:02.510Z,100284.25
2019-03-03T08:49:32.346Z,100281.70
2019-03-03T08:52:07.830Z,100281.57
2019-03-03T08:54:53.849Z,100284.18
2019-03-03T08:57:32.627Z,100287.86
2019-03-03T09:00:02.505Z,100282.09
2019-03-03T09:02:32.314Z,100288.58
2019-03-03T09:05:17.110Z,100284.34
2019-03-03T09:07:56.197Z,100285.44
2019-03-03T09:10:31.910Z,100280.16
2019-03-03T09:13:04.570Z,100280.95
2019-03-03T09:15:38.361Z,100278.89
2019-03-03T09:18:19.863Z,100283.73
2019-03-03T09:21:06.389Z,100278.66
2019-03-03T09:23:45.708Z,100277.77
2019-03-03T09:26:21.597Z,100283.03
2019-03-03T09:28:51.433Z,100280.92
2019-03-03T09:31:27.284Z,100279.03
2019-03-03T09:34:14.938Z,100277.59
2019-03-03T09:36:56.910Z,100272.21
2019-03-03T09:39:26.725Z,100274.84
2019-03-03T09:41:56.558Z,100273.34
2019-03-03T09:44:26.642Z,100267.50
2019-03-03T09:47:12.685Z,100272.07
2019-03-03T09:49:45.006Z,100274.98
2019-03-03T09:52:14.862Z,100271.50
2019-03-03T09:54:47.636Z,100265.42
2019-03-03T09:57:34.175Z,100266.53
2019-03-03T10:00:04.005Z,100252.42
2019-03-03T10:02:42.789Z,100256.78
2019-03-03T10:05:20.124Z,100259.36
2019-03-03T10:08:06.414Z,100250.76
2019-03-03T10:10:36.247Z,100248.34
2019-03-03T10:13:06.121Z,100252.23
2019-03-03T10:15:44.478Z,100258.19
2019-03-03T10:18:29.265Z,100252.03
2019-03-03T10:21:03.250Z,100254.39
2019-03-03T10:23:35.934Z,100244.91
2019-03-03T10:26:11.818Z,100247.11
2019-03-03T10:28:50.578Z,100243.09
2019-03-03T10:31:20.692Z,100248.56
2019-03-03T10:33:50.526Z,100245.33
2019-03-03T10:36:23.898Z,100252.81
2019-03-03T10:38:53.721Z,100246.56
2019-03-03T10:41:26.542Z,100247.25
2019-03-03T10:44:02.107Z,100252.14
2019-03-03T10:46:41.065Z,100253.06
2019-03-03T10:49:19.910Z,100252.46
2019-03-03T10:51:55.789Z,100251.39
2019-03-03T10:54:28.321Z,100248.17
2019-03-03T10:56:58.149Z,100252.95
2019-03-03T10:59:30.642Z,100252.57
2019-03-03T11:02:06.026Z,100243.80
2019-03-03T11:04:38.524Z,100246.41
2019-03-03T11:07:08.431Z,100249.94
2019-03-03T11:09:38.297Z,100244.28
2019-03-03T11:12:26.535Z,100251.47
2019-03-03T11:15:02.093Z,100254.08
2019-03-03T11:17:34.678Z,100246.30
2019-03-03T11:20:07.638Z,100250.60
2019-03-03T11:22:40.479Z,100251.94
2019-03-03T11:25:20.226Z,100243.89
2019-03-03T11:27:52.941Z,100239.09
2019-03-03T11:30:37.381Z,100218.22
2019-03-03T11:33:09.249Z,100227.58
2019-03-03T11:35:54.105Z,100228.59
2019-03-03T11:38:23.998Z,100229.95
2019-03-03T11:40:56.978Z,100215.75
2019-03-03T11:43:30.176Z,100202.97
2019-03-03T11:46:09.402Z,100191.44
2019-03-03T11:48:44.994Z,100187.07
2019-03-03T11:51:14.809Z,100183.05
2019-03-03T11:53:44.613Z,100185.45
2019-03-03T11:56:14.449Z,100181.70
2019-03-03T11:58:44.262Z,100176.84
2019-03-03T12:01:26.144Z,100175.72
2019-03-03T12:03:55.954Z,100175.45
2019-03-03T12:06:35.141Z,100160.46
2019-03-03T12:09:23.339Z,100174.14
2019-03-03T12:12:09.725Z,100171.78
2019-03-03T12:14:54.477Z,100171.45
2019-03-03T12:17:24.317Z,100174.11
2019-03-03T12:20:03.185Z,100173.09
2019-03-03T12:22:42.204Z,100167.45
2019-03-03T12:25:15.902Z,100161.08
2019-03-03T12:27:48.813Z,100167.28
2019-03-03T12:30:24.329Z,100154.73
2019-03-03T12:32:56.845Z,100152.35
2019-03-03T12:35:26.675Z,100152.52
2019-03-03T12:37:56.481Z,100159.54
2019-03-03T12:40:41.547Z,100164.27
2019-03-03T12:43:26.160Z,100157.83
2019-03-03T12:46:01.532Z,100163.74
2019-03-03T12:48:37.074Z,100162.99
2019-03-03T12:51:12.397Z,100170.59
2019-03-03T12:54:00.825Z,100174.38
2019-03-03T12:56:42.694Z,100176.67
2019-03-03T12:59:24.201Z,100173.36
2019-03-03T13:01:54.030Z,100173.80
2019-03-03T13:04:40.092Z,100164.28
2019-03-03T13:07:09.917Z,100163.59
2019-03-03T13:09:45.283Z,100161.02
2019-03-03T13:12:21.534Z,100146.17
2019-03-03T13:14:54.618Z,100142.93
2019-03-03T13:17:27.091Z,100141.55
2019-03-03T13:20:15.235Z,100137.66
2019-03-03T13:23:03.497Z,100134.42
2019-03-03T13:25:48.661Z,100123.02
2019-03-03T13:28:21.530Z,100128.95
2019-03-03T13:30:54.310Z,100118.30
2019-03-03T13:33:30.317Z,100115.19
2019-03-03T13:36:00.489Z,100112.63
2019-03-03T13:38:36.094Z,100111.31
2019-03-03T13:41:05.974Z,100115.03
2019-03-03T13:43:34.398Z,100109.45
2019-03-03T13:46:02.729Z,100106.19
2019-03-03T13:48:30.919Z,100107.06
2019-03-03T13:50:59.085Z,100104.95
2019-03-03T13:53:27.421Z,100096.79
2019-03-03T13:55:55.652Z,100093.39
2019-03-03T13:58:23.817Z,100082.88
2019-03-03T14:00:52.082Z,100084.19
2019-03-03T14:03:20.346Z,100081.96
2019-03-03T14:05:48.508Z,100081.11
2019-03-03T14:08:17.035Z,100075.11
2019-03-03T14:10:45.221Z,100068.66
2019-03-03T14:13:13.394Z,100062.69
2019-03-03T14:15:41.586Z,100067.08
2019-03-03T14:18:09.821Z,100077.05
2019-03-03T14:20:38.014Z,100074.53
2019-03-03T14:23:06.530Z,100068.99
2019-03-03T14:25:35.010Z,100070.22
2019-03-03T14:28:03.484Z,100071.66
2019-03-03T14:30:31.672Z,100065.84
2019-03-03T14:32:59.850Z,100071.69
2019-03-03T14:35:28.039Z,100056.97
2019-03-03T14:37:56.225Z,100059.01
2019-03-03T14:40:24.409Z,100056.22
2019-03-03T14:42:52.574Z,100048.92
2019-03-03T14:45:21.110Z,100038.00
2019-03-03T14:47:49.307Z,100039.05
2019-03-03T14:50:19.886Z,100041.02
2019-03-03T14:52:53.024Z,100028.97
2019-03-03T14:55:21.217Z,100027.56
2019-03-03T14:57:49.374Z,100025.38
2019-03-03T15:00:24.540Z,100023.41
2019-03-03T15:02:53.369Z,100016.04
2019-03-03T15:05:22.109Z,100017.20
2019-03-03T15:07:50.372Z,100010.52
2019-03-03T15:10:18.606Z,100010.26
2019-03-03T15:12:46.794Z,100003.11
2019-03-03T15:15:20.758Z,100006.00
2019-03-03T15:17:48.944Z,100006.60
2019-03-03T15:20:17.450Z,100008.57
2019-03-03T15:22:45.702Z,100001.61
2019-03-03T15:25:15.627Z,100002.52
2019-03-03T15:27:44.229Z,100008.08
2019-03-03T15:30:20.076Z,99992.33
2019-03-03T15:32:48.313Z,99998.55
2019-03-03T15:35:16.841Z,99985.80
2019-03-03T15:37:45.876Z,99978.95
2019-03-03T15:40:16.976Z,99971.28
2019-03-03T15:42:45.483Z,99961.61
2019-03-03T15:45:16.573Z,99957.88
2019-03-03T15:47:45.057Z,99955.25
2019-03-03T15:50:13.881Z,99942.00
2019-03-03T15:52:42.114Z,99936.22
2019-03-03T15:55:12.949Z,99925.69
2019-03-03T15:57:41.539Z,99919.60
2019-03-03T16:00:12.828Z,99919.83
2019-03-03T16:02:41.362Z,99912.16
2019-03-03T16:05:10.883Z,99911.59
2019-03-03T16:07:39.981Z,99919.75
2019-03-03T16:10:11.574Z,99918.67
2019-03-03T16:12:39.741Z,99917.21
2019-03-03T16:15:12.939Z,99916.66
2019-03-03T16:17:41.125Z,99906.72
2019-03-03T16:20:12.398Z,99909.95
2019-03-03T16:22:40.579Z,99905.85
2019-03-03T16:25:11.919Z,99903.11
2019-03-03T16:27:40.352Z,99899.42
2019-03-03T16:30:11.620Z,99894.96
2019-03-03T16:32:40.235Z,99887.09
2019-03-03T16:35:09.043Z,99889.16
2019-03-03T16:37:37.222Z,99885.44
2019-03-03T16:40:11.814Z,99884.90
2019-03-03T16:42:40.014Z,99881.70
2019-03-03T16:45:10.926Z,99874.13
2019-03-03T16:47:39.184Z,99874.77
2019-03-03T16:50:12.994Z,99862.87
2019-03-03T16:52:41.162Z,99871.64
2019-03-03T16:55:13.885Z,99869.63
2019-03-03T16:57:44.555Z,99863.95
2019-03-03T17:00:27.345Z,99871.94
2019-03-03T17:02:55.541Z,99869.53
2019-03-03T17:05:26.523Z,99864.31
2019-03-03T17:07:54.865Z,99854.09
2019-03-03T17:10:23.340Z,99843.95
2019-03-03T17:12:51.510Z,99844.31
2019-03-03T17:15:21.901Z,99841.27
2019-03-03T17:17:50.371Z,99839.46
2019-03-03T17:20:18.625Z,99830.31
2019-03-03T17:22:47.426Z,99836.87
2019-03-03T17:25:21.852Z,99838.74
2019-03-03T17:27:50.016Z,99831.47
2019-03-03T17:30:23.303Z,99833.75
2019-03-03T17:32:51.533Z,99832.63
2019-03-03T17:35:20.155Z,99831.73
2019-03-03T17:37:48.617Z,99823.86
2019-03-03T17:40:21.232Z,99824.32
2019-03-03T17:42:49.504Z,99819.74
2019-03-03T17:45:21.958Z,99823.89
2019-03-03T17:47:50.393Z,99826.45
2019-03-03T17:50:20.494Z,99822.11
2019-03-03T17:52:48.679Z,99825.36
2019-03-03T17:55:17.642Z,99810.52
2019-03-03T17:57:46.305Z,99813.61
2019-03-03T18:00:20.562Z,99819.91
2019-03-03T18:02:48.727Z,99815.08
2019-03-03T18:05:18.353Z,99808.92
2019-03-03T18:07:46.590Z,99796.28
2019-03-03T18:10:15.161Z,99792.81
2019-03-03T18:12:43.334Z,99795.28
2019-03-03T18:15:16.146Z,99786.36
2019-03-03T18:17:44.350Z,99792.67
2019-03-03T18:20:17.340Z,99786.69
2019-03-03T18:22:45.883Z,99778.31
2019-03-03T18:25:16.998Z,99783.17
2019-03-03T18:27:45.436Z,99772.63
2019-03-03T18:30:27.835Z,99772.52
2019-03-03T18:32:56.368Z,99771.11
2019-03-03T18:35:24.953Z,99769.48
2019-03-03T18:37:53.204Z,99764.12
2019-03-03T18:40:25.332Z,99763.30
2019-03-03T18:42:53.510Z,99762.41
2019-03-03T18:45:23.124Z,99755.42
2019-03-03T18:47:51.374Z,99747.30
2019-03-03T18:50:24.544Z,99748.00
2019-03-03T18:52:52.729Z,99735.77
2019-03-03T18:55:20.923Z,99736.02
2019-03-03T18:57:49.089Z,99735.58
2019-03-03T19:00:27.948Z,99727.23
2019-03-03T19:02:58.093Z,99719.16
2019-03-03T19:05:26.041Z,99711.38
2019-03-03T19:07:54.422Z,99702.52
2019-03-03T19:10:25.450Z,99699.44
2019-03-03T19:12:53.746Z,99697.63
2019-03-03T19:15:22.006Z,99691.53
2019-03-03T19:17:50.516Z,99697.77
2019-03-03T19:20:22.271Z,99697.41
2019-03-03T19:22:50.788Z,99695.55
2019-03-03T19:25:19.807Z,99698.56
2019-03-03T19:27:47.975Z,99695.62
2019-03-03T19:30:26.286Z,99689.83
2019-03-03T19:32:57.792Z,99689.36
2019-03-03T19:35:25.953Z,99674.73
2019-03-03T19:37:54.133Z,99676.95
2019-03-03T19:40:22.391Z,99666.40
2019-03-03T19:42:50.573Z,99672.05
2019-03-03T19:45:27.464Z,99672.22
2019-03-03T19:47:55.648Z,99657.34
2019-03-03T19:50:23.826Z,99657.53
2019-03-03T19:52:51.984Z,99658.25
2019-03-03T19:55:20.250Z,99653.82
2019-03-03T19:57:48.447Z,99652.41
2019-03-03T20:00:19.814Z,99643.87
2019-03-03T20:02:48.739Z,99639.80
2019-03-03T20:05:17.546Z,99646.81
2019-03-03T20:07:45.722Z,99643.52
2019-03-03T20:10:14.670Z,99643.36
2019-03-03T20:12:42.839Z,99646.03
2019-03-03T20:15:11.261Z,99632.83
2019-03-03T20:17:41.299Z,99642.45
2019-03-03T20:20:17.416Z,99644.13
2019-03-03T20:22:45.633Z,99634.78
2019-03-03T20:25:14.161Z,99632.86
2019-03-03T20:27:42.967Z,99623.02
2019-03-03T20:30:17.038Z,99618.96
2019-03-03T20:32:45.561Z,99621.34
2019-03-03T20:35:14.390Z,99624.06
2019-03-03T20:37:42.581Z,99624.90
2019-03-03T20:40:18.457Z,99625.28
2019-03-03T20:42:46.622Z,99615.06
2019-03-03T20:45:25.977Z,99616.48
2019-03-03T20:47:54.204Z,99613.55
2019-03-03T20:50:22.766Z,99615.62
2019-03-03T20:52:51.689Z,99617.15
2019-03-03T20:55:21.541Z,99612.36
2019-03-03T20:57:49.726Z,99599.33
2019-03-03T21:00:28.786Z,99596.52
2019-03-03T21:02:57.318Z,99594.55
2019-03-03T21:05:25.819Z,99595.51
2019-03-03T21:07:54.237Z,99600.02
2019-03-03T21:10:24.162Z,99588.58
2019-03-03T21:12:52.526Z,99588.19
2019-03-03T21:15:20.717Z,99582.84
2019-03-03T21:17:49.054Z,99561.50
2019-03-03T21:20:21.827Z,99553.20
2019-03-03T21:22:49.991Z,99540.81
2019-03-03T21:25:19.014Z,99534.69
2019-03-03T21:27:47.617Z,99538.75
2019-03-03T21:30:23.974Z,99547.76
2019-03-03T21:32:52.205Z,99546.92
2019-03-03T21:35:20.792Z,99541.63
2019-03-03T21:37:49.674Z,99540.14
2019-03-03T21:40:23.616Z,99539.48
2019-03-03T21:42:52.065Z,99530.10
2019-03-03T21:45:25.897Z,99530.67
2019-03-03T21:47:55.427Z,99520.11
2019-03-03T21:50:30.519Z,99530.31
2019-03-03T21:52:58.700Z,99528.79
2019-03-03T21:55:26.879Z,99512.97
2019-03-03T21:57:55.061Z,99514.50
2019-03-03T22:00:28.968Z,99507.57
2019-03-03T22:02:57.395Z,99508.42
2019-03-03T22:05:26.666Z,99508.34
2019-03-03T22:07:54.838Z,99505.06
2019-03-03T22:10:33.393Z,99500.38
2019-03-03T22:13:06.884Z,99486.46
2019-03-03T22:15:35.137Z,99478.44
2019-03-03T22:18:03.306Z,99472.63
2019-03-03T22:20:31.468Z,99468.74
2019-03-03T22:23:01.510Z,99462.20
2019-03-03T22:25:29.553Z,99457.52
2019-03-03T22:27:57.737Z,99446.88
2019-03-03T22:30:26.163Z,99429.95
2019-03-03T22:32:54.350Z,99417.80
2019-03-03T22:35:22.513Z,99399.56
2019-03-03T22:37:51.399Z,99385.48
2019-03-03T22:40:24.286Z,99362.47
2019-03-03T22:42:52.481Z,99357.14
2019-03-03T22:45:21.513Z,99348.56
2019-03-03T22:47:49.710Z,99355.55
2019-03-03T22:50:19.539Z,99355.07
2019-03-03T22:52:47.721Z,99352.80
2019-03-03T22:55:18.129Z,99348.38
2019-03-03T22:57:46.610Z,99325.57
2019-03-03T23:00:24.315Z,99313.92
2019-03-03T23:02:52.503Z,99320.73
2019-03-03T23:05:42.554Z,99307.25
2019-03-03T23:08:13.814Z,99311.52
2019-03-03T23:11:00.322Z,99306.92
2019-03-03T23:13:37.325Z,99310.62
2019-03-03T23:16:23.583Z,99314.25
2019-03-03T23:19:11.405Z,99334.88
2019-03-03T23:22:08.129Z,99339.84
2019-03-03T23:24:55.830Z,99336.69
2019-03-03T23:27:23.998Z,99325.20
2019-03-03T23:29:52.157Z,99303.14
2019-03-03T23:32:20.341Z,99273.89
2019-03-03T23:34:48.577Z,99277.50
2019-03-03T23:37:18.311Z,99288.36
2019-03-03T23:39:46.477Z,99290.09
2019-03-03T23:42:14.664Z,99280.06
2019-03-03T23:44:43.123Z,99278.63
2019-03-03T23:47:11.343Z,99268.97
2019-03-03T23:49:39.537Z,99263.97
2019-03-03T23:52:07.738Z,99253.47
2019-03-03T23:54:35.929Z,99253.63
2019-03-03T23:57:04.231Z,99245.99
2019-03-03T23:59:32.422Z,99236.13
